createdAt,value
2019-03-25T19:45:01.101Z,1.42
2019-03-25T19:50:01.564Z,1.72
2019-03-25T19:55:01.114Z,0.99
2019-03-25T20:00:01.108Z,0.74
2019-03-25T20:05:01.267Z,0.92
2019-03-25T20:10:01.170Z,0.48
2019-03-25T20:15:01.073Z,1.56
2019-03-25T20:20:01.395Z,1.78
2019-03-25T20:25:01.103Z,1.14
2019-03-25T20:30:01.077Z,1.43
2019-03-25T20:35:01.136Z,1.39
2019-03-25T20:40:01.118Z,2.59
2019-03-25T20:45:01.387Z,3.13
2019-03-25T20:50:01.126Z,3.26
2019-03-25T20:55:01.516Z,2.89
2019-03-25T21:00:01.394Z,2.23
2019-03-25T21:05:01.074Z,1.62
2019-03-25T21:10:01.476Z,1.87
2019-03-25T21:15:01.054Z,1.37
2019-03-25T21:20:01.085Z,1.91
2019-03-25T21:25:01.073Z,1.84
2019-03-25T21:30:01.155Z,1.43
2019-03-25T21:35:01.459Z,0.85
2019-03-25T21:40:01.235Z,1.45
2019-03-25T21:45:01.421Z,0.52
2019-03-25T21:50:01.263Z,0.80
2019-03-25T21:55:01.448Z,0.49
2019-03-25T22:00:01.083Z,0.31
2019-03-25T22:05:01.431Z,0.43
2019-03-25T22:10:01.233Z,0.72
2019-03-25T22:15:01.489Z,0.20
2019-03-25T22:20:01.165Z,0.65
2019-03-25T22:25:01.213Z,0.82
2019-03-25T22:30:01.046Z,0.94
2019-03-25T22:35:01.112Z,1.25
2019-03-25T22:40:01.400Z,0.83
2019-03-25T22:45:01.073Z,0.32
2019-03-25T22:50:01.387Z,0.39
2019-03-25T22:55:01.075Z,0.40
2019-03-25T23:00:01.420Z,0.53
2019-03-25T23:05:01.050Z,0.54
2019-03-25T23:10:01.121Z,0.75
2019-03-25T23:15:01.084Z,0.76
2019-03-25T23:20:01.345Z,0.63
2019-03-25T23:25:01.068Z,0.51
2019-03-25T23:30:01.086Z,0.52
2019-03-25T23:35:01.066Z,0.90
2019-03-25T23:40:01.057Z,0.74
2019-03-25T23:45:01.053Z,0.71
2019-03-25T23:50:01.040Z,1.00
2019-03-25T23:55:01.074Z,0.65
